createdAt,value
2023-04-03T00:00:36.754Z,100.00
2023-04-03T00:03:03.503Z,100.00
2023-04-03T00:05:30.288Z,100.00
2023-04-03T00:07:56.834Z,100.00
2023-04-03T00:10:23.457Z,100.00
2023-04-03T00:12:49.962Z,100.00
2023-04-03T00:15:16.539Z,100.00
2023-04-03T00:17:43.167Z,100.00
2023-04-03T00:20:10.069Z,100.00
2023-04-03T00:22:36.596Z,100.00
2023-04-03T00:25:04.129Z,99.48
2023-04-03T00:27:30.675Z,100.00
2023-04-03T00:29:57.107Z,100.00
2023-04-03T00:32:23.612Z,100.00
2023-04-03T00:34:50.306Z,100.00
2023-04-03T00:37:16.780Z,98.93
2023-04-03T00:39:43.243Z,98.08
2023-04-03T00:42:09.725Z,98.76
2023-04-03T00:44:36.156Z,98.81
2023-04-03T00:47:08.106Z,97.63
2023-04-03T00:49:35.296Z,94.96
2023-04-03T00:52:02.602Z,96.93
2023-04-03T00:54:29.129Z,94.44
2023-04-03T00:56:57.599Z,95.67
2023-04-03T00:59:31.261Z,94.51
2023-04-03T01:01:58.201Z,94.81
2023-04-03T01:04:39.522Z,94.77
2023-04-03T01:07:16.334Z,92.47
2023-04-03T01:09:44.085Z,94.55
2023-04-03T01:12:38.681Z,93.44
2023-04-03T01:15:08.774Z,93.49
2023-04-03T01:17:51.476Z,93.82
2023-04-03T01:20:34.019Z,94.44
2023-04-03T01:23:09.993Z,97.33
2023-04-03T01:25:39.292Z,98.01
2023-04-03T01:28:08.400Z,96.09
2023-04-03T01:30:42.300Z,96.55
2023-04-03T01:33:08.909Z,97.36
2023-04-03T01:35:35.455Z,97.77
2023-04-03T01:38:02.007Z,100.00
2023-04-03T01:40:28.477Z,99.89
2023-04-03T01:42:54.915Z,100.00
2023-04-03T01:45:21.400Z,99.14
2023-04-03T01:47:47.894Z,100.00
2023-04-03T01:50:14.517Z,99.25
2023-04-03T01:52:41.016Z,99.94
2023-04-03T01:55:07.885Z,98.87
2023-04-03T01:57:34.403Z,99.61
2023-04-03T02:00:00.999Z,99.65
2023-04-03T02:02:27.513Z,100.00
2023-04-03T02:04:54.192Z,98.51
2023-04-03T02:07:20.697Z,99.05
2023-04-03T02:09:47.225Z,98.99
2023-04-03T02:12:13.729Z,99.99
2023-04-03T02:14:40.400Z,99.56
2023-04-03T02:17:09.638Z,99.02
2023-04-03T02:19:36.731Z,99.80
2023-04-03T02:22:06.351Z,100.00
2023-04-03T02:24:33.042Z,100.00
2023-04-03T02:26:59.965Z,100.00
2023-04-03T02:29:26.588Z,99.55
2023-04-03T02:31:53.122Z,99.82
2023-04-03T02:34:19.600Z,99.60
2023-04-03T02:36:46.165Z,100.00
2023-04-03T02:39:12.694Z,99.50
2023-04-03T02:41:39.138Z,98.15
2023-04-03T02:44:07.421Z,99.24
2023-04-03T02:46:34.778Z,98.69
2023-04-03T02:49:01.410Z,95.86
2023-04-03T02:51:27.929Z,96.93
2023-04-03T02:53:54.565Z,98.88
2023-04-03T02:56:21.452Z,98.91
2023-04-03T02:58:48.041Z,99.00
2023-04-03T03:01:14.897Z,98.44
2023-04-03T03:03:41.412Z,98.35
2023-04-03T03:06:14.185Z,96.99
2023-04-03T03:08:41.074Z,98.70
2023-04-03T03:11:07.645Z,98.17
2023-04-03T03:13:35.336Z,98.12
2023-04-03T03:16:02.303Z,99.04
2023-04-03T03:18:29.133Z,98.20
2023-04-03T03:20:58.201Z,98.83
2023-04-03T03:23:27.064Z,97.48
2023-04-03T03:25:58.344Z,97.33
2023-04-03T03:28:25.385Z,97.94
2023-04-03T03:30:52.148Z,98.16
2023-04-03T03:33:19.578Z,99.52
2023-04-03T03:35:46.199Z,98.63
2023-04-03T03:38:13.181Z,99.27
2023-04-03T03:40:39.819Z,98.16
2023-04-03T03:43:06.500Z,97.25
2023-04-03T03:45:33.122Z,98.22
2023-04-03T03:47:59.676Z,97.55
2023-04-03T03:50:26.227Z,98.06
2023-04-03T03:52:52.694Z,97.83
2023-04-03T03:55:19.354Z,96.76
2023-04-03T03:57:46.002Z,96.89
2023-04-03T04:00:12.898Z,97.56
2023-04-03T04:02:39.530Z,98.03
2023-04-03T04:05:06.435Z,97.68
2023-04-03T04:07:32.963Z,98.01
2023-04-03T04:09:59.421Z,96.11
2023-04-03T04:12:26.142Z,94.35
2023-04-03T04:14:52.647Z,95.19
2023-04-03T04:17:20.794Z,95.44
2023-04-03T04:19:47.313Z,96.22
2023-04-03T04:22:13.821Z,96.54
2023-04-03T04:24:40.319Z,96.14
2023-04-03T04:27:06.862Z,96.67
2023-04-03T04:29:36.721Z,96.33
2023-04-03T04:32:04.756Z,96.34
2023-04-03T04:34:31.593Z,94.92
2023-04-03T04:36:58.244Z,96.28
2023-04-03T04:39:24.787Z,95.09
2023-04-03T04:41:51.418Z,94.58
2023-04-03T04:44:17.885Z,96.23
2023-04-03T04:46:44.374Z,94.50
2023-04-03T04:49:11.060Z,94.93
2023-04-03T04:51:48.315Z,94.50
2023-04-03T04:54:18.948Z,95.14
2023-04-03T04:56:45.542Z,95.52
2023-04-03T04:59:12.030Z,95.95
2023-04-03T05:01:38.617Z,95.99
2023-04-03T05:04:05.583Z,93.96
2023-04-03T05:06:33.081Z,93.68
2023-04-03T05:09:00.224Z,94.31
2023-04-03T05:11:27.185Z,94.33
2023-04-03T05:13:53.775Z,95.62
2023-04-03T05:16:20.315Z,94.92
2023-04-03T05:18:46.936Z,93.92
2023-04-03T05:21:13.662Z,94.51
2023-04-03T05:23:40.189Z,94.59
2023-04-03T05:26:06.888Z,94.27
2023-04-03T05:28:34.044Z,93.29
2023-04-03T05:31:00.708Z,93.52
2023-04-03T05:33:27.690Z,93.24
2023-04-03T05:35:55.656Z,93.47
2023-04-03T05:38:22.564Z,93.97
2023-04-03T05:40:49.055Z,92.60
2023-04-03T05:43:15.885Z,93.31
2023-04-03T05:45:43.626Z,93.26
2023-04-03T05:48:11.540Z,93.79
2023-04-03T05:50:42.421Z,94.46
2023-04-03T05:53:17.414Z,93.62
2023-04-03T05:55:43.902Z,95.13
2023-04-03T05:58:11.748Z,94.84
2023-04-03T06:00:38.535Z,94.05
2023-04-03T06:03:05.261Z,95.17
2023-04-03T06:05:32.038Z,94.11
2023-04-03T06:07:58.741Z,95.06
2023-04-03T06:10:25.310Z,94.73
2023-04-03T06:12:52.344Z,94.05
2023-04-03T06:15:19.004Z,94.58
2023-04-03T06:17:45.758Z,95.28
2023-04-03T06:20:13.319Z,95.82
2023-04-03T06:22:40.377Z,94.84
2023-04-03T06:25:07.410Z,95.88
2023-04-03T06:27:33.951Z,94.87
2023-04-03T06:30:00.572Z,95.83
2023-04-03T06:32:27.570Z,95.41
2023-04-03T06:34:54.589Z,96.30
2023-04-03T06:37:23.381Z,97.16
2023-04-03T06:39:49.961Z,97.68
2023-04-03T06:42:17.160Z,96.68
2023-04-03T06:44:43.705Z,97.74
2023-04-03T06:47:17.618Z,96.83
2023-04-03T06:49:44.690Z,97.02
2023-04-03T06:52:13.141Z,96.31
2023-04-03T06:54:41.065Z,97.53
2023-04-03T06:57:08.625Z,96.56
2023-04-03T06:59:36.001Z,96.50
2023-04-03T07:02:02.591Z,96.58
2023-04-03T07:04:29.325Z,96.55
2023-04-03T07:06:55.852Z,96.45
2023-04-03T07:09:22.625Z,97.92
2023-04-03T07:11:49.279Z,97.59
2023-04-03T07:14:15.924Z,95.72
2023-04-03T07:16:42.848Z,95.99
2023-04-03T07:19:09.998Z,100.00
2023-04-03T07:21:36.802Z,95.18
2023-04-03T07:24:03.703Z,95.14
2023-04-03T07:26:30.251Z,95.03
2023-04-03T07:28:57.109Z,93.95
2023-04-03T07:31:24.078Z,94.92
2023-04-03T07:33:50.980Z,94.07
2023-04-03T07:36:20.439Z,92.43
2023-04-03T07:38:47.018Z,91.02
2023-04-03T07:41:16.827Z,93.13
2023-04-03T07:43:43.351Z,93.20
2023-04-03T07:46:10.381Z,91.69
2023-04-03T07:48:37.236Z,81.81
2023-04-03T07:51:05.105Z,80.04
2023-04-03T07:53:32.336Z,75.83
2023-04-03T07:55:59.733Z,73.82
2023-04-03T07:58:26.711Z,75.67
2023-04-03T08:00:53.414Z,72.50
2023-04-03T08:03:20.125Z,67.98
2023-04-03T08:05:49.414Z,66.04
2023-04-03T08:08:21.182Z,62.62
2023-04-03T08:10:55.001Z,60.24
2023-04-03T08:13:21.619Z,60.75
2023-04-03T08:15:48.599Z,63.20
2023-04-03T08:18:16.982Z,65.01
2023-04-03T08:20:44.037Z,62.04
2023-04-03T08:23:11.392Z,65.68
2023-04-03T08:25:42.370Z,64.21
2023-04-03T08:28:10.089Z,65.95
2023-04-03T08:30:37.146Z,64.77
2023-04-03T08:33:04.954Z,64.97
2023-04-03T08:35:31.689Z,64.80
2023-04-03T08:37:58.325Z,65.11
2023-04-03T08:40:25.565Z,63.48
2023-04-03T08:43:20.435Z,62.92
2023-04-03T08:45:52.703Z,64.12
2023-04-03T08:48:30.492Z,61.18
2023-04-03T08:51:12.195Z,62.70
2023-04-03T08:53:43.287Z,61.74
2023-04-03T08:56:11.119Z,63.43
2023-04-03T08:58:48.786Z,61.97
2023-04-03T09:01:22.375Z,64.95
2023-04-03T09:03:48.991Z,62.27
2023-04-03T09:06:31.557Z,63.25
2023-04-03T09:09:22.928Z,62.28
2023-04-03T09:12:01.306Z,60.72
2023-04-03T09:14:38.099Z,61.45
2023-04-03T09:17:14.891Z,60.54
2023-04-03T09:20:03.279Z,60.63
2023-04-03T09:22:36.491Z,61.66
2023-04-03T09:25:14.841Z,60.20
2023-04-03T09:27:41.395Z,57.20
2023-04-03T09:30:17.970Z,57.85
2023-04-03T09:32:50.947Z,59.19
2023-04-03T09:35:36.451Z,60.77
2023-04-03T09:38:14.279Z,59.64
2023-04-03T09:40:52.469Z,57.15
2023-04-03T09:43:28.444Z,56.13
2023-04-03T09:45:56.599Z,58.20
2023-04-03T09:48:26.333Z,55.08
2023-04-03T09:50:56.624Z,54.96
2023-04-03T09:53:31.152Z,57.64
2023-04-03T09:55:58.004Z,55.67
2023-04-03T09:58:36.054Z,54.28
2023-04-03T10:01:34.811Z,52.62
2023-04-03T10:04:07.330Z,52.51
2023-04-03T10:06:41.703Z,53.81
2023-04-03T10:09:22.123Z,53.20
2023-04-03T10:11:59.253Z,52.15
2023-04-03T10:14:26.261Z,53.12
2023-04-03T10:17:04.497Z,53.04
2023-04-03T10:19:37.738Z,51.17
2023-04-03T10:22:36.597Z,51.03
2023-04-03T10:25:15.773Z,53.20
2023-04-03T10:28:07.413Z,51.22
2023-04-03T10:30:41.540Z,51.62
2023-04-03T10:33:23.295Z,51.83
2023-04-03T10:36:02.055Z,51.35
2023-04-03T10:38:49.547Z,50.58
2023-04-03T10:41:30.046Z,50.67
2023-04-03T10:44:08.403Z,51.05
2023-04-03T10:46:54.685Z,49.91
2023-04-03T10:49:32.339Z,49.49
2023-04-03T10:52:13.984Z,52.74
2023-04-03T10:55:19.241Z,48.97
2023-04-03T10:57:47.292Z,47.52
2023-04-03T11:00:20.826Z,47.51
2023-04-03T11:03:01.172Z,47.92
2023-04-03T11:05:35.417Z,46.40
2023-04-03T11:08:14.567Z,46.04
2023-04-03T11:10:45.897Z,46.20
2023-04-03T11:13:21.646Z,45.23
2023-04-03T11:15:48.963Z,44.59
2023-04-03T11:18:38.719Z,43.18
2023-04-03T11:21:13.894Z,44.08
2023-04-03T11:23:49.493Z,44.04
2023-04-03T11:26:23.743Z,45.48
2023-04-03T11:29:02.717Z,42.90
2023-04-03T11:31:44.385Z,42.76
2023-04-03T11:34:37.177Z,43.89
2023-04-03T11:37:13.843Z,41.33
2023-04-03T11:39:48.969Z,41.79
2023-04-03T11:42:26.580Z,40.85
2023-04-03T11:45:25.635Z,41.11
2023-04-03T11:48:30.544Z,42.21
2023-04-03T11:50:58.840Z,42.66
2023-04-03T11:53:40.253Z,43.18
2023-04-03T11:56:24.821Z,43.00
2023-04-03T11:59:13.218Z,42.96
2023-04-03T12:01:53.753Z,43.13
2023-04-03T12:04:26.930Z,43.40
2023-04-03T12:07:13.566Z,46.26
2023-04-03T12:09:57.278Z,43.80
2023-04-03T12:12:28.709Z,44.09
2023-04-03T12:14:55.378Z,46.83
2023-04-03T12:17:27.766Z,43.30
2023-04-03T12:19:54.415Z,42.85
2023-04-03T12:22:22.280Z,43.34
2023-04-03T12:24:53.701Z,44.11
2023-04-03T12:27:35.695Z,43.96
2023-04-03T12:30:02.284Z,44.84
2023-04-03T12:32:44.006Z,43.90
2023-04-03T12:35:22.700Z,44.15
2023-04-03T12:38:16.821Z,43.27
2023-04-03T12:40:43.223Z,43.03
2023-04-03T12:43:24.643Z,43.70
2023-04-03T12:46:04.810Z,42.92
2023-04-03T12:48:48.415Z,43.23
2023-04-03T12:51:18.517Z,44.20
2023-04-03T12:53:46.248Z,44.35
2023-04-03T12:56:26.327Z,45.33
2023-04-03T12:58:54.768Z,44.61
2023-04-03T13:01:27.722Z,43.86
2023-04-03T13:03:59.340Z,45.06
2023-04-03T13:06:32.089Z,45.27
2023-04-03T13:09:05.073Z,45.58
2023-04-03T13:11:37.209Z,46.21
2023-04-03T13:14:06.899Z,45.90
2023-04-03T13:16:34.710Z,46.22
2023-04-03T13:19:01.540Z,46.53
2023-04-03T13:21:31.389Z,45.59
2023-04-03T13:24:13.996Z,45.83
2023-04-03T13:26:42.189Z,46.90
2023-04-03T13:29:29.816Z,45.94
2023-04-03T13:31:59.540Z,45.42
2023-04-03T13:34:30.249Z,46.75
2023-04-03T13:37:01.478Z,47.27
2023-04-03T13:39:33.966Z,45.64
2023-04-03T13:42:15.063Z,46.93
2023-04-03T13:44:41.981Z,46.90
2023-04-03T13:47:11.778Z,45.09
2023-04-03T13:49:47.510Z,45.03
2023-04-03T13:52:32.110Z,45.24
2023-04-03T13:57:54.503Z,46.71
2023-04-03T14:00:30.348Z,45.94
2023-04-03T14:02:57.999Z,45.07
2023-04-03T14:05:27.567Z,45.96
2023-04-03T14:07:56.347Z,44.92
2023-04-03T14:10:23.300Z,45.01
2023-04-03T14:12:51.706Z,45.81
2023-04-03T14:15:24.611Z,44.65
2023-04-03T14:17:54.806Z,45.33
2023-04-03T14:20:24.772Z,45.33
2023-04-03T14:22:52.267Z,46.42
2023-04-03T14:25:20.306Z,45.96
2023-04-03T14:27:49.929Z,47.07
2023-04-03T14:30:23.813Z,47.65
2023-04-03T14:32:50.969Z,45.78
2023-04-03T14:35:19.713Z,45.88
2023-04-03T14:37:47.090Z,44.76
2023-04-03T14:40:20.925Z,45.68
2023-04-03T14:42:49.534Z,45.02
2023-04-03T14:45:17.502Z,45.31
2023-04-03T14:47:49.895Z,43.67
2023-04-03T14:50:22.212Z,44.68
2023-04-03T14:52:49.999Z,44.16
2023-04-03T14:55:19.163Z,44.45
2023-04-03T14:57:46.238Z,45.13
2023-04-03T15:00:18.248Z,46.74
2023-04-03T15:02:46.002Z,47.21
2023-04-03T15:05:13.648Z,47.72
2023-04-03T15:07:43.284Z,45.77
2023-04-03T15:10:28.616Z,44.00
2023-04-03T15:12:55.690Z,44.73
2023-04-03T15:15:23.554Z,44.50
2023-04-03T15:17:55.315Z,44.00
2023-04-03T15:20:25.074Z,43.23
2023-04-03T15:22:51.746Z,44.66
2023-04-03T15:25:19.210Z,43.51
2023-04-03T15:27:45.956Z,44.02
2023-04-03T15:30:16.677Z,43.48
2023-04-03T15:32:43.557Z,43.10
2023-04-03T15:35:10.428Z,45.27
2023-04-03T15:37:37.183Z,43.68
2023-04-03T15:40:05.974Z,44.00
2023-04-03T15:42:32.645Z,43.69
2023-04-03T15:44:59.657Z,45.11
2023-04-03T15:47:27.819Z,44.33
2023-04-03T15:49:55.969Z,44.37
2023-04-03T15:52:22.530Z,44.92
2023-04-03T15:54:49.020Z,45.03
2023-04-03T15:57:15.552Z,43.42
2023-04-03T15:59:42.127Z,42.73
2023-04-03T16:02:11.293Z,43.71
2023-04-03T16:04:37.814Z,43.52
2023-04-03T16:07:05.274Z,43.72
2023-04-03T16:09:35.249Z,44.14
2023-04-03T16:12:02.957Z,44.80
2023-04-03T16:14:31.218Z,46.68
2023-04-03T16:16:59.766Z,46.59
2023-04-03T16:19:26.488Z,48.18
2023-04-03T16:21:54.822Z,47.83
2023-04-03T16:24:21.395Z,47.88
2023-04-03T16:26:47.894Z,47.63
2023-04-03T16:29:14.384Z,49.13
2023-04-03T16:31:41.155Z,47.07
2023-04-03T16:34:07.734Z,46.50
2023-04-03T16:36:34.257Z,46.99
2023-04-03T16:39:00.747Z,46.31
2023-04-03T16:41:27.268Z,46.08
2023-04-03T16:43:53.856Z,46.29
2023-04-03T16:46:20.509Z,46.90
2023-04-03T16:48:47.047Z,44.93
2023-04-03T16:51:14.371Z,44.20
2023-04-03T16:53:40.934Z,45.02
2023-04-03T16:56:07.430Z,46.30
2023-04-03T16:58:33.921Z,46.02
2023-04-03T17:01:10.110Z,46.43
2023-04-03T17:03:36.669Z,46.00
2023-04-03T17:06:03.349Z,45.18
2023-04-03T17:08:29.856Z,47.13
2023-04-03T17:10:56.544Z,46.49
2023-04-03T17:13:23.124Z,48.40
2023-04-03T17:15:49.874Z,46.99
2023-04-03T17:18:16.519Z,46.13
2023-04-03T17:20:43.045Z,46.48
2023-04-03T17:23:09.605Z,46.61
2023-04-03T17:25:36.191Z,47.65
2023-04-03T17:28:02.759Z,46.94
2023-04-03T17:30:29.197Z,47.39
2023-04-03T17:32:55.800Z,47.16
2023-04-03T17:35:22.297Z,47.53
2023-04-03T17:37:50.527Z,47.23
2023-04-03T17:40:18.734Z,48.80
2023-04-03T17:42:45.609Z,47.46
2023-04-03T17:45:12.219Z,47.65
2023-04-03T17:47:38.750Z,47.55
2023-04-03T17:50:06.046Z,47.35
2023-04-03T17:52:32.573Z,48.20
2023-04-03T17:54:59.052Z,48.25
2023-04-03T17:57:25.652Z,47.60
2023-04-03T17:59:53.987Z,47.23
2023-04-03T18:02:20.824Z,47.89
2023-04-03T18:04:47.341Z,47.20
2023-04-03T18:07:13.867Z,48.89
2023-04-03T18:09:41.299Z,48.65
2023-04-03T18:12:09.882Z,48.47
2023-04-03T18:14:38.113Z,48.28
2023-04-03T18:17:04.781Z,47.64
2023-04-03T18:19:31.891Z,47.09
2023-04-03T18:22:03.091Z,49.36
2023-04-03T18:24:33.325Z,48.05
2023-04-03T18:27:22.116Z,48.18
2023-04-03T18:29:52.188Z,49.28
2023-04-03T18:32:20.524Z,48.36
2023-04-03T18:34:47.190Z,48.06
2023-04-03T18:37:15.148Z,48.36
2023-04-03T18:39:41.877Z,48.16
2023-04-03T18:42:11.922Z,47.79
2023-04-03T18:44:40.828Z,48.40
2023-04-03T18:47:08.214Z,49.76
2023-04-03T18:49:37.753Z,50.17
2023-04-03T18:52:04.710Z,49.39
2023-04-03T18:54:32.063Z,50.46
2023-04-03T18:56:59.114Z,50.06
2023-04-03T18:59:25.895Z,48.48
2023-04-03T19:01:52.536Z,48.83
2023-04-03T19:04:19.055Z,50.65
2023-04-03T19:06:45.713Z,50.63
2023-04-03T19:09:12.299Z,50.73
2023-04-03T19:11:38.827Z,51.20
2023-04-03T19:14:16.247Z,51.43
2023-04-03T19:16:44.935Z,49.34
2023-04-03T19:19:12.130Z,50.01
2023-04-03T19:21:41.292Z,49.53
2023-04-03T19:24:10.960Z,49.83
2023-04-03T19:26:37.954Z,49.44
2023-04-03T19:29:04.810Z,50.38
2023-04-03T19:31:33.419Z,50.30
2023-04-03T19:34:00.951Z,50.68
2023-04-03T19:36:27.484Z,49.13
2023-04-03T19:38:54.044Z,50.21
2023-04-03T19:41:23.625Z,49.55
2023-04-03T19:43:55.854Z,48.99
2023-04-03T19:46:24.485Z,49.38
2023-04-03T19:48:51.244Z,50.22
2023-04-03T19:51:18.439Z,49.68
2023-04-03T19:53:45.231Z,50.38
2023-04-03T19:56:11.826Z,50.01
2023-04-03T19:58:39.450Z,50.50
2023-04-03T20:01:05.953Z,49.34
2023-04-03T20:03:32.681Z,51.52
2023-04-03T20:05:59.220Z,51.08
2023-04-03T20:08:28.352Z,51.81
2023-04-03T20:10:56.073Z,49.85
2023-04-03T20:13:22.642Z,51.34
2023-04-03T20:15:49.217Z,51.77
2023-04-03T20:18:20.482Z,52.29
2023-04-03T20:20:58.511Z,51.62
2023-04-03T20:23:28.142Z,51.80
2023-04-03T20:26:08.670Z,50.74
2023-04-03T20:28:38.318Z,51.63
2023-04-03T20:31:05.359Z,49.82
2023-04-03T20:33:32.020Z,49.58
2023-04-03T20:35:58.817Z,50.49
2023-04-03T20:38:25.649Z,49.82
2023-04-03T20:40:52.487Z,51.15
2023-04-03T20:43:19.622Z,51.85
2023-04-03T20:45:46.112Z,50.38
2023-04-03T20:48:13.189Z,50.53
2023-04-03T20:50:41.255Z,50.23
2023-04-03T20:53:08.932Z,51.17
2023-04-03T20:55:35.570Z,50.74
2023-04-03T20:58:02.252Z,51.36
2023-04-03T21:00:29.549Z,53.42
2023-04-03T21:02:57.852Z,53.07
2023-04-03T21:05:26.276Z,52.32
2023-04-03T21:08:32.029Z,52.06
2023-04-03T21:11:36.471Z,51.74
2023-04-03T21:14:42.456Z,51.96
2023-04-03T21:17:08.921Z,53.33
2023-04-03T21:19:40.142Z,54.14
2023-04-03T21:22:06.945Z,52.39
2023-04-03T21:24:33.497Z,53.49
2023-04-03T21:26:59.974Z,53.53
2023-04-03T21:29:26.500Z,53.64
2023-04-03T21:31:57.797Z,52.99
2023-04-03T21:34:27.625Z,53.33
2023-04-03T21:36:55.459Z,52.78
2023-04-03T21:39:23.096Z,53.42
2023-04-03T21:41:52.009Z,53.30
2023-04-03T21:44:20.293Z,53.27
2023-04-03T21:46:48.023Z,52.67
2023-04-03T21:49:14.964Z,52.79
2023-04-03T21:51:42.330Z,53.26
2023-04-03T21:54:09.250Z,54.10
2023-04-03T21:56:35.801Z,53.29
2023-04-03T21:59:05.449Z,53.17
2023-04-03T22:01:32.475Z,52.87
2023-04-03T22:03:59.581Z,52.72
2023-04-03T22:06:26.561Z,52.38
2023-04-03T22:08:53.238Z,52.64
2023-04-03T22:11:22.965Z,52.86
2023-04-03T22:13:52.431Z,52.94
2023-04-03T22:16:19.392Z,54.89
2023-04-03T22:18:46.058Z,56.16
2023-04-03T22:21:12.578Z,56.95
2023-04-03T22:23:39.581Z,55.92
2023-04-03T22:26:08.078Z,56.99
2023-04-03T22:28:45.873Z,56.96
2023-04-03T22:31:14.228Z,57.62
2023-04-03T22:33:42.249Z,57.44
2023-04-03T22:36:10.759Z,55.53
2023-04-03T22:38:38.911Z,53.94
2023-04-03T22:41:07.229Z,56.15
2023-04-03T22:43:36.470Z,54.12
2023-04-03T22:46:05.111Z,55.77
2023-04-03T22:48:31.959Z,55.87
2023-04-03T22:50:59.977Z,57.51
2023-04-03T22:53:29.526Z,57.54
2023-04-03T22:56:01.150Z,57.55
2023-04-03T22:58:28.917Z,55.07
2023-04-03T23:01:04.242Z,55.42
2023-04-03T23:03:30.813Z,57.57
2023-04-03T23:05:57.472Z,57.77
2023-04-03T23:08:24.177Z,57.18
2023-04-03T23:10:55.662Z,56.54
2023-04-03T23:13:22.992Z,54.76
2023-04-03T23:15:56.800Z,56.46
2023-04-03T23:18:23.806Z,56.98
2023-04-03T23:20:55.050Z,55.65
2023-04-03T23:23:23.586Z,53.73
2023-04-03T23:25:53.684Z,54.63
2023-04-03T23:28:20.888Z,54.22
2023-04-03T23:30:48.216Z,55.90
2023-04-03T23:33:15.123Z,54.05
2023-04-03T23:35:46.697Z,55.03
2023-04-03T23:38:13.723Z,54.54
2023-04-03T23:40:41.990Z,56.54
2023-04-03T23:43:08.875Z,55.73
2023-04-03T23:45:35.744Z,54.83
2023-04-03T23:48:02.310Z,55.13
2023-04-03T23:50:28.824Z,55.33
2023-04-03T23:52:55.544Z,56.29
2023-04-03T23:55:22.129Z,55.38
2023-04-03T23:57:48.641Z,56.15
